Time;durP1;ratioP1;P1;durP2;ratioP2;P2;SDS_P1;SDS_P2;PMS_P1;PMS_P2;Temp;Humidity;BMP_temperature;BMP_pressure;BME280_temperature;BME280_humidity;BME280_pressure;Samples;Min_cycle;Max_cycle;Signal;HPM_P1;HPM_P2
2020/12/04 00:00:21;;;;;;;27.80;24.90;;;2.70;99.90;;;;;;5125993;27;20654;-87
2020/12/04 00:02:47;;;;;;;26.80;24.13;;;2.70;99.90;;;;;;5120899;27;20667;-87
2020/12/04 00:05:14;;;;;;;27.37;24.47;;;2.70;99.90;;;;;;5109355;27;20628;-87
2020/12/04 00:07:41;;;;;;;28.57;25.60;;;2.70;99.90;;;;;;5128876;27;20618;-88
2020/12/04 00:10:09;;;;;;;26.63;23.80;;;2.60;99.90;;;;;;5139268;27;20645;-87
2020/12/04 00:12:37;;;;;;;21.40;19.30;;;2.70;99.90;;;;;;5132096;27;20606;-88
2020/12/04 00:15:04;;;;;;;22.27;19.83;;;2.70;99.90;;;;;;5128339;27;20625;-86
2020/12/04 00:17:30;;;;;;;22.30;20.07;;;2.70;99.90;;;;;;5138578;27;20720;-88
2020/12/04 00:19:56;;;;;;;20.23;18.23;;;2.80;99.90;;;;;;5127972;27;20658;-88
2020/12/04 00:22:24;;;;;;;18.30;16.40;;;2.80;99.90;;;;;;5131780;27;20766;-87
2020/12/04 00:24:50;;;;;;;19.27;16.97;;;2.90;99.90;;;;;;5128970;27;20625;-87
2020/12/04 00:27:17;;;;;;;18.30;16.50;;;2.90;99.90;;;;;;5130852;27;20964;-87
2020/12/04 00:29:43;;;;;;;18.20;16.30;;;3.00;99.90;;;;;;5128271;27;20642;-87
2020/12/04 00:32:09;;;;;;;20.10;18.10;;;3.10;99.90;;;;;;5136638;27;20633;-88
2020/12/04 00:34:36;;;;;;;19.13;17.03;;;3.20;99.90;;;;;;5145790;27;20646;-87
2020/12/04 00:37:02;;;;;;;18.60;16.77;;;3.30;99.90;;;;;;5138794;27;20722;-88
2020/12/04 00:39:29;;;;;;;20.57;18.50;;;3.20;99.90;;;;;;5133095;27;20646;-88
2020/12/04 00:41:59;;;;;;;20.43;18.43;;;3.10;99.90;;;;;;5129855;27;20654;-88
2020/12/04 00:44:26;;;;;;;21.23;19.10;;;3.00;99.90;;;;;;5128147;27;20629;-88
2020/12/04 00:46:52;;;;;;;22.43;19.97;;;2.80;99.90;;;;;;5130284;27;20630;-88
2020/12/04 00:49:18;;;;;;;23.90;21.57;;;2.80;99.90;;;;;;5128457;27;20635;-87
2020/12/04 00:51:45;;;;;;;23.23;20.73;;;2.80;99.90;;;;;;5121320;27;20623;-88
2020/12/04 00:54:11;;;;;;;24.07;21.67;;;2.90;99.90;;;;;;5137313;27;20624;-89
2020/12/04 00:56:39;;;;;;;23.93;21.30;;;2.70;99.90;;;;;;5132235;27;20622;-88
2020/12/04 00:59:05;;;;;;;21.97;19.80;;;2.70;99.90;;;;;;5126436;27;21111;-88
2020/12/04 01:01:33;;;;;;;23.10;20.80;;;2.60;99.90;;;;;;5131273;27;20674;-88
2020/12/04 01:03:59;;;;;;;22.90;20.40;;;2.60;99.90;;;;;;5124575;27;20596;-87
2020/12/04 01:06:26;;;;;;;21.80;19.70;;;2.70;99.90;;;;;;5117337;27;21189;-87
2020/12/04 01:08:52;;;;;;;21.00;18.87;;;2.70;99.90;;;;;;5123822;27;20673;-87
2020/12/04 01:11:20;;;;;;;20.53;18.33;;;2.70;99.90;;;;;;5123428;27;20669;-88
2020/12/04 01:13:47;;;;;;;23.13;20.73;;;2.70;99.90;;;;;;5126778;27;21257;-87
2020/12/04 01:16:13;;;;;;;22.13;19.83;;;2.60;99.90;;;;;;5127232;27;20996;-87
2020/12/04 01:18:40;;;;;;;21.20;19.10;;;2.60;99.90;;;;;;5121047;27;20633;-87
2020/12/04 01:21:07;;;;;;;22.40;20.10;;;2.70;99.90;;;;;;5126845;27;20647;-87
2020/12/04 01:23:33;;;;;;;21.13;18.87;;;2.70;99.90;;;;;;5127265;27;20627;-87
2020/12/04 01:25:59;;;;;;;21.67;19.43;;;2.70;99.90;;;;;;5127409;27;20650;-87
2020/12/04 01:28:25;;;;;;;22.27;20.07;;;2.70;99.90;;;;;;5124027;27;20616;-87
2020/12/04 01:30:53;;;;;;;21.60;19.23;;;2.70;99.90;;;;;;5127347;27;20642;-87
2020/12/04 01:33:19;;;;;;;21.97;19.77;;;2.70;99.90;;;;;;5126046;27;20637;-89
2020/12/04 01:35:46;;;;;;;21.60;19.40;;;2.60;99.90;;;;;;5133967;27;20610;-88
2020/12/04 01:38:12;;;;;;;21.73;19.50;;;2.50;99.90;;;;;;5105283;27;21155;-87
2020/12/04 01:40:38;;;;;;;21.77;19.50;;;2.50;99.90;;;;;;5120698;27;20657;-88
2020/12/04 01:43:05;;;;;;;22.67;20.47;;;2.50;99.90;;;;;;5124853;27;20663;-88
2020/12/04 01:45:35;;;;;;;21.90;19.70;;;2.60;99.90;;;;;;5124592;27;20623;-88
2020/12/04 01:48:02;;;;;;;22.40;20.17;;;2.50;99.90;;;;;;5125325;27;20630;-88
2020/12/04 01:50:29;;;;;;;23.50;21.20;;;2.50;99.90;;;;;;5133791;27;20642;-87
2020/12/04 01:52:55;;;;;;;23.27;21.03;;;2.50;99.90;;;;;;5122289;27;20627;-87
2020/12/04 01:55:22;;;;;;;23.33;20.90;;;2.50;99.90;;;;;;5130069;27;20631;-87
2020/12/04 01:57:49;;;;;;;25.03;22.40;;;2.50;99.90;;;;;;5122411;27;20623;-87
2020/12/04 02:00:15;;;;;;;25.77;23.07;;;2.50;99.90;;;;;;5126915;27;20643;-88
2020/12/04 02:02:43;;;;;;;24.77;22.33;;;2.70;99.90;;;;;;5125960;27;20655;-87
2020/12/04 02:05:10;;;;;;;23.23;20.83;;;2.60;99.90;;;;;;5132487;27;20630;-88
2020/12/04 02:07:49;;;;;;;23.07;20.57;;;2.60;99.90;;;;;;5123895;27;20611;-87
2020/12/04 02:10:20;;;;;;;22.40;20.20;;;2.50;99.90;;;;;;5128135;27;20650;-87
2020/12/04 02:12:48;;;;;;;24.60;22.17;;;2.50;99.90;;;;;;5122453;27;20615;-86
2020/12/04 02:15:16;;;;;;;21.37;19.17;;;2.60;99.90;;;;;;5125825;27;20634;-88
2020/12/04 02:17:43;;;;;;;22.70;20.30;;;2.60;99.90;;;;;;5121122;27;20631;-87
2020/12/04 02:20:12;;;;;;;23.70;21.20;;;2.60;99.90;;;;;;5125107;27;21044;-87
2020/12/04 02:22:40;;;;;;;23.70;21.23;;;2.80;99.90;;;;;;5123835;27;20667;-87
2020/12/04 02:25:09;;;;;;;23.47;21.07;;;2.70;99.90;;;;;;5126415;27;20633;-86
2020/12/04 02:27:44;;;;;;;24.13;21.70;;;2.70;99.90;;;;;;5122275;27;20696;-86
2020/12/04 02:30:12;;;;;;;23.50;21.20;;;2.70;99.90;;;;;;5123615;27;20662;-87
2020/12/04 02:32:38;;;;;;;22.67;20.40;;;2.50;99.90;;;;;;5127077;27;20998;-86
2020/12/04 02:35:05;;;;;;;23.53;21.17;;;2.50;99.90;;;;;;5122354;27;20978;-86
2020/12/04 02:37:31;;;;;;;22.00;19.93;;;2.50;99.90;;;;;;5106408;27;20631;-86
2020/12/04 02:39:59;;;;;;;22.13;19.93;;;2.70;99.90;;;;;;5120903;27;20662;-87
2020/12/04 02:42:25;;;;;;;22.90;19.47;;;2.70;99.90;;;;;;5122124;27;21273;-86
2020/12/04 02:44:51;;;;;;;24.67;22.27;;;2.70;99.90;;;;;;5132230;27;20620;-87
2020/12/04 02:47:19;;;;;;;24.33;21.93;;;2.60;99.90;;;;;;5123735;27;21191;-88
2020/12/04 02:49:45;;;;;;;25.07;22.47;;;2.60;99.90;;;;;;5125745;27;20661;-86
2020/12/04 02:52:11;;;;;;;24.73;22.17;;;2.60;99.90;;;;;;5116140;27;21341;-87
2020/12/04 02:54:37;;;;;;;24.60;22.27;;;2.60;99.90;;;;;;5123684;27;20631;-88
2020/12/04 02:57:04;;;;;;;24.80;22.47;;;2.60;99.90;;;;;;5123835;27;20583;-86
2020/12/04 02:59:31;;;;;;;26.67;24.07;;;2.50;99.90;;;;;;5120298;27;20657;-88
2020/12/04 03:01:57;;;;;;;27.50;24.63;;;2.50;99.90;;;;;;5115256;27;20679;-87
2020/12/04 03:04:23;;;;;;;25.60;22.90;;;2.50;99.90;;;;;;5127179;27;20742;-87
2020/12/04 03:06:50;;;;;;;22.70;20.30;;;2.60;99.90;;;;;;5123265;27;20638;-87
2020/12/04 03:09:16;;;;;;;23.43;21.20;;;2.70;99.90;;;;;;5128154;27;20575;-86
2020/12/04 03:11:42;;;;;;;22.90;20.53;;;2.80;99.90;;;;;;5121758;27;21008;-86
2020/12/04 03:14:09;;;;;;;20.67;18.67;;;2.80;99.90;;;;;;5130498;27;20634;-86
2020/12/04 03:16:36;;;;;;;23.00;20.70;;;2.90;99.90;;;;;;5130441;27;20623;-88
2020/12/04 03:19:02;;;;;;;23.80;21.30;;;2.80;99.90;;;;;;5129058;27;20622;-88
2020/12/04 03:21:30;;;;;;;20.43;18.23;;;2.80;99.90;;;;;;5137493;27;20711;-88
2020/12/04 03:23:57;;;;;;;21.43;19.23;;;2.70;99.90;;;;;;5128387;27;20618;-88
2020/12/04 03:26:23;;;;;;;19.80;17.90;;;2.70;99.90;;;;;;5130326;27;20611;-87
2020/12/04 03:28:50;;;;;;;20.17;18.27;;;2.70;99.90;;;;;;5128728;27;20603;-88
2020/12/04 03:31:18;;;;;;;19.20;17.40;;;2.80;99.90;;;;;;5132450;27;20642;-88
2020/12/04 03:33:44;;;;;;;19.70;17.70;;;2.70;99.90;;;;;;5131141;27;20631;-87
2020/12/04 03:36:11;;;;;;;19.43;17.60;;;2.70;99.90;;;;;;5131831;27;20604;-87
2020/12/04 03:38:38;;;;;;;19.90;17.53;;;2.60;99.90;;;;;;5129694;27;20622;-87
2020/12/04 03:41:04;;;;;;;19.23;17.23;;;2.70;99.90;;;;;;5140513;27;20642;-88
2020/12/04 03:43:30;;;;;;;20.40;17.40;;;2.70;99.90;;;;;;5135568;27;20662;-89
2020/12/04 03:45:56;;;;;;;19.57;17.60;;;2.80;99.90;;;;;;5129947;27;20642;-88
2020/12/04 03:48:24;;;;;;;20.73;18.70;;;2.70;99.90;;;;;;5126119;27;20629;-88
2020/12/04 03:50:50;;;;;;;18.43;16.57;;;2.80;99.90;;;;;;5128334;27;21215;-88
2020/12/04 03:53:16;;;;;;;19.17;17.23;;;2.90;99.90;;;;;;5132418;27;20638;-88
2020/12/04 03:55:43;;;;;;;19.40;17.40;;;2.70;99.90;;;;;;5131656;27;20615;-89
2020/12/04 03:58:09;;;;;;;20.10;18.03;;;2.80;99.90;;;;;;5125794;27;21220;-90
2020/12/04 04:00:39;;;;;;;19.83;17.83;;;2.80;99.90;;;;;;5128561;27;21353;-88
2020/12/04 04:03:05;;;;;;;19.73;17.73;;;3.00;99.90;;;;;;5127426;27;20663;-88
2020/12/04 04:05:32;;;;;;;19.63;17.80;;;3.00;99.90;;;;;;5125810;27;20618;-89
2020/12/04 04:07:59;;;;;;;20.07;17.90;;;3.10;99.90;;;;;;5122203;27;20948;-88
2020/12/04 04:10:25;;;;;;;19.57;17.60;;;3.10;99.90;;;;;;5127330;27;20662;-88
2020/12/04 04:12:51;;;;;;;21.33;19.13;;;3.10;99.90;;;;;;5123425;27;20631;-88
2020/12/04 04:15:18;;;;;;;24.80;18.93;;;3.20;99.90;;;;;;5131707;27;20623;-88
2020/12/04 04:17:44;;;;;;;21.27;19.10;;;3.10;99.90;;;;;;5130401;27;20695;-88
2020/12/04 04:20:10;;;;;;;22.43;20.03;;;3.20;99.90;;;;;;5134911;27;20650;-88
2020/12/04 04:22:37;;;;;;;21.33;19.10;;;3.30;99.90;;;;;;5125394;27;20661;-88
2020/12/04 04:25:05;;;;;;;23.27;18.73;;;3.30;99.90;;;;;;5111404;27;20658;-87
2020/12/04 04:27:31;;;;;;;21.07;18.97;;;3.10;99.90;;;;;;5106920;27;20598;-87
2020/12/04 04:29:58;;;;;;;20.17;18.00;;;3.00;99.90;;;;;;5133856;27;20684;-87
2020/12/04 04:32:24;;;;;;;18.43;16.53;;;3.20;99.90;;;;;;5129424;27;20638;-87
2020/12/04 04:34:51;;;;;;;18.90;17.00;;;3.20;99.90;;;;;;5123349;27;20638;-88
2020/12/04 04:37:17;;;;;;;19.53;17.53;;;3.20;99.90;;;;;;5125073;27;20624;-87
2020/12/04 04:39:45;;;;;;;20.40;18.20;;;3.30;99.90;;;;;;5130640;27;20734;-87
2020/12/04 04:42:11;;;;;;;19.27;17.30;;;3.30;99.90;;;;;;5125815;27;20672;-87
2020/12/04 04:44:38;;;;;;;18.53;16.73;;;3.30;99.90;;;;;;5131141;27;20627;-88
2020/12/04 04:47:06;;;;;;;20.47;18.47;;;3.30;99.90;;;;;;5123815;27;20627;-88
2020/12/04 04:49:36;;;;;;;20.40;18.30;;;3.30;99.90;;;;;;5127318;27;22106;-87
2020/12/04 04:52:05;;;;;;;19.57;17.47;;;3.40;99.90;;;;;;5121801;27;20631;-87
2020/12/04 04:54:35;;;;;;;32.57;24.63;;;3.30;99.90;;;;;;5129552;27;20702;-87
2020/12/04 04:57:03;;;;;;;128.73;80.60;;;3.20;99.90;;;;;;5126704;27;20689;-87
2020/12/04 04:59:30;;;;;;;65.50;43.63;;;3.20;99.90;;;;;;5133415;27;20638;-87
2020/12/04 05:01:57;;;;;;;19.90;17.33;;;3.10;99.90;;;;;;5125593;27;20642;-88
2020/12/04 05:04:24;;;;;;;18.40;15.77;;;3.10;99.90;;;;;;5094200;27;21040;-88
2020/12/04 05:06:50;;;;;;;19.40;17.40;;;3.00;99.90;;;;;;5110684;27;21217;-88
2020/12/04 05:09:25;;;;;;;18.33;16.43;;;3.10;99.90;;;;;;5126656;27;21002;-88
2020/12/04 05:11:55;;;;;;;33.00;22.50;;;3.30;99.90;;;;;;5128219;27;20613;-88
2020/12/04 05:14:24;;;;;;;29.50;23.10;;;3.60;99.90;;;;;;5129937;27;20630;-90
2020/12/04 05:16:58;;;;;;;26.30;23.40;;;3.60;99.90;;;;;;5136125;27;20625;-89
2020/12/04 05:19:29;;;;;;;26.00;23.20;;;3.60;99.90;;;;;;5125133;27;20631;-91
2020/12/04 05:22:13;;;;;;;29.73;22.20;;;3.50;99.90;;;;;;5127591;27;21244;-89
2020/12/04 05:24:42;;;;;;;27.03;22.40;;;3.60;99.90;;;;;;5124377;27;20650;-89
2020/12/04 05:27:26;;;;;;;28.77;22.17;;;3.50;99.90;;;;;;5130824;27;20623;-89
2020/12/04 05:29:57;;;;;;;24.13;20.83;;;3.50;99.90;;;;;;5127372;27;20953;-89
2020/12/04 05:32:24;;;;;;;22.53;19.53;;;3.30;99.90;;;;;;5130129;27;21105;-89
2020/12/04 05:34:51;;;;;;;21.80;19.07;;;3.40;99.90;;;;;;5126777;27;20669;-89
2020/12/04 05:37:20;;;;;;;18.43;16.43;;;3.20;99.90;;;;;;5126436;27;20611;-89
2020/12/04 05:39:49;;;;;;;17.47;15.60;;;3.50;99.90;;;;;;5126237;27;20599;-89
2020/12/04 05:42:33;;;;;;;19.70;17.80;;;3.60;99.90;;;;;;5125802;27;20662;-88
2020/12/04 05:45:03;;;;;;;18.20;16.47;;;3.70;99.90;;;;;;5129595;27;20635;-89
2020/12/04 05:47:38;;;;;;;21.23;17.17;;;3.60;99.90;;;;;;5128441;27;20631;-90
2020/12/04 05:50:06;;;;;;;28.70;17.50;;;3.60;99.90;;;;;;5130130;27;20610;-90
2020/12/04 05:52:35;;;;;;;18.73;16.90;;;3.50;99.90;;;;;;5129946;27;20611;-89
2020/12/04 05:55:02;;;;;;;18.80;17.00;;;3.40;99.90;;;;;;5130132;27;20647;-90
2020/12/04 05:57:29;;;;;;;18.77;16.87;;;3.40;99.90;;;;;;5130591;27;21168;-90
2020/12/04 05:59:56;;;;;;;17.87;15.83;;;3.50;99.90;;;;;;5123884;27;20981;-91
2020/12/04 06:02:23;;;;;;;18.80;16.73;;;3.80;99.90;;;;;;5129920;27;20650;-91
2020/12/04 06:04:52;;;;;;;18.97;17.07;;;3.70;99.90;;;;;;5126836;27;20662;-91
2020/12/04 06:07:24;;;;;;;17.83;15.83;;;3.50;99.90;;;;;;5123198;27;20647;-90
2020/12/04 06:09:55;;;;;;;18.00;15.83;;;3.50;99.90;;;;;;5126527;27;20619;-89
2020/12/04 06:12:21;;;;;;;17.70;16.00;;;3.80;99.90;;;;;;5123825;27;20579;-88
2020/12/04 06:14:48;;;;;;;18.10;16.20;;;3.60;99.90;;;;;;5125015;27;20638;-89
2020/12/04 06:17:15;;;;;;;17.30;15.63;;;3.60;99.90;;;;;;5129493;27;20638;-90
2020/12/04 06:19:43;;;;;;;16.90;15.23;;;3.50;99.90;;;;;;5125770;27;20603;-89
2020/12/04 06:22:11;;;;;;;17.37;15.67;;;3.50;99.90;;;;;;5130067;27;20674;-90
2020/12/04 06:25:03;;;;;;;17.63;15.90;;;3.50;99.90;;;;;;5132203;27;20634;-88
2020/12/04 06:27:37;;;;;;;19.00;17.20;;;3.40;99.90;;;;;;5128994;27;20595;-88
2020/12/04 06:30:05;;;;;;;16.90;15.30;;;3.50;99.90;;;;;;5127107;27;20633;-89
2020/12/04 06:32:35;;;;;;;17.00;15.43;;;3.50;99.90;;;;;;5131046;27;21259;-90
2020/12/04 06:35:02;;;;;;;17.30;15.47;;;3.40;99.90;;;;;;5130285;27;20647;-91
2020/12/04 06:37:39;;;;;;;18.80;16.70;;;3.30;99.90;;;;;;5132306;27;20630;-91
2020/12/04 06:40:25;;;;;;;18.07;16.17;;;3.40;99.90;;;;;;5137739;27;20621;-90
2020/12/04 06:42:52;;;;;;;18.17;16.23;;;3.40;99.90;;;;;;5149626;27;20666;-92
2020/12/04 06:45:19;;;;;;;21.47;17.17;;;3.40;99.90;;;;;;5134593;27;21008;-85
2020/12/04 06:48:11;;;;;;;17.67;15.97;;;3.40;99.90;;;;;;5126156;27;20610;-85
2020/12/04 06:50:39;;;;;;;18.00;16.10;;;3.30;99.90;;;;;;5124448;27;20611;-85
2020/12/04 06:53:09;;;;;;;18.73;16.83;;;3.30;99.90;;;;;;5122663;27;20645;-86
2020/12/04 06:55:40;;;;;;;17.30;15.70;;;3.40;99.90;;;;;;5121953;27;20680;-86
2020/12/04 06:58:08;;;;;;;18.40;16.50;;;3.20;99.90;;;;;;5108034;27;21172;-87
2020/12/04 07:00:34;;;;;;;19.60;17.50;;;3.30;99.90;;;;;;5125043;27;20727;-87
2020/12/04 07:03:02;;;;;;;18.87;17.07;;;3.30;99.90;;;;;;5126879;27;20667;-85
2020/12/04 07:05:29;;;;;;;17.93;16.17;;;3.30;99.90;;;;;;5124727;27;20648;-88
2020/12/04 07:08:06;;;;;;;20.53;17.00;;;3.20;99.90;;;;;;5127788;27;20606;-88
2020/12/04 07:10:33;;;;;;;19.60;17.30;;;3.30;99.90;;;;;;5130057;27;20609;-88
2020/12/04 07:13:01;;;;;;;21.00;16.90;;;3.20;99.90;;;;;;5127958;27;20958;-90
2020/12/04 07:15:27;;;;;;;17.50;15.60;;;3.30;99.90;;;;;;5127406;27;20642;-88
2020/12/04 07:17:56;;;;;;;18.87;16.73;;;3.40;99.90;;;;;;5125283;27;20627;-89
2020/12/04 07:20:31;;;;;;;19.80;17.37;;;3.40;99.90;;;;;;5127733;27;21075;-89
2020/12/04 07:22:57;;;;;;;22.60;18.20;;;3.20;99.90;;;;;;5127432;27;20654;-89
2020/12/04 07:25:25;;;;;;;21.70;17.87;;;3.40;99.90;;;;;;5120686;27;20662;-89
2020/12/04 07:27:52;;;;;;;19.20;17.30;;;3.40;99.90;;;;;;5124920;27;20623;-88
2020/12/04 07:30:19;;;;;;;21.90;17.43;;;3.20;99.90;;;;;;5126606;27;20619;-89
2020/12/04 07:32:50;;;;;;;17.87;16.23;;;3.30;99.90;;;;;;5126861;27;20661;-89
2020/12/04 07:35:17;;;;;;;19.60;17.60;;;3.30;99.90;;;;;;5132607;27;20642;-90
2020/12/04 07:37:43;;;;;;;19.00;16.17;;;3.40;99.90;;;;;;5132094;27;20627;-90
2020/12/04 07:40:10;;;;;;;21.33;17.00;;;3.40;99.90;;;;;;5107226;27;20622;-89
2020/12/04 07:42:37;;;;;;;19.60;17.37;;;3.40;99.90;;;;;;5126749;27;20673;-88
2020/12/04 07:45:04;;;;;;;20.40;18.13;;;3.50;99.90;;;;;;5120263;27;20654;-89
2020/12/04 07:47:30;;;;;;;19.33;17.10;;;3.50;99.90;;;;;;5121267;27;20649;-89
2020/12/04 07:50:00;;;;;;;20.20;17.40;;;3.50;99.90;;;;;;5130849;27;21152;-91
2020/12/04 07:52:28;;;;;;;20.60;17.57;;;3.50;99.90;;;;;;5119517;27;21032;-89
2020/12/04 07:54:57;;;;;;;17.83;16.10;;;3.60;99.90;;;;;;5125264;27;20992;-89
2020/12/04 07:57:31;;;;;;;18.30;16.50;;;3.70;99.90;;;;;;5128999;27;20618;-89
2020/12/04 07:59:59;;;;;;;19.17;17.13;;;3.60;99.90;;;;;;5127837;27;20961;-89
2020/12/04 08:02:27;;;;;;;18.93;15.60;;;3.50;99.90;;;;;;5131490;27;20655;-89
2020/12/04 08:04:54;;;;;;;19.67;17.70;;;3.60;99.90;;;;;;5132140;27;20654;-89
2020/12/04 08:07:21;;;;;;;19.17;17.17;;;3.60;99.90;;;;;;5134944;27;20618;-88
2020/12/04 08:09:49;;;;;;;20.13;17.50;;;3.60;99.90;;;;;;5128896;27;20623;-88
2020/12/04 08:12:17;;;;;;;22.93;17.20;;;3.80;99.90;;;;;;5132715;27;20615;-89
2020/12/04 08:14:49;;;;;;;22.00;17.27;;;3.80;99.90;;;;;;5127513;27;21010;-90
2020/12/04 08:17:20;;;;;;;20.20;18.20;;;3.80;99.90;;;;;;5131748;27;20627;-89
2020/12/04 08:19:46;;;;;;;28.97;19.87;;;3.90;99.90;;;;;;5128101;27;20629;-89
2020/12/04 08:22:13;;;;;;;20.70;17.57;;;3.90;99.90;;;;;;5129280;27;20666;-89
2020/12/04 08:24:50;;;;;;;20.80;18.07;;;4.00;99.90;;;;;;5136732;27;20646;-89
2020/12/04 08:27:17;;;;;;;24.60;19.00;;;4.00;99.90;;;;;;5127014;27;20643;-89
2020/12/04 08:30:00;;;;;;;21.07;17.20;;;4.10;99.90;;;;;;5129423;27;20697;-88
2020/12/04 08:32:28;;;;;;;20.30;17.03;;;4.00;99.90;;;;;;5131405;27;20618;-89
2020/12/04 08:35:12;;;;;;;23.03;18.70;;;4.20;99.90;;;;;;5146905;27;20656;-88
2020/12/04 08:37:38;;;;;;;25.10;18.80;;;4.20;99.90;;;;;;5129956;27;20721;-89
2020/12/04 08:40:18;;;;;;;20.07;17.97;;;4.10;99.90;;;;;;5133048;27;20638;-88
2020/12/04 08:42:45;;;;;;;20.67;17.77;;;4.10;99.90;;;;;;5127087;27;20642;-88
2020/12/04 08:45:14;;;;;;;19.10;17.10;;;4.30;99.90;;;;;;5131585;27;20651;-90
2020/12/04 08:47:44;;;;;;;22.93;17.03;;;4.40;99.90;;;;;;5111725;27;21015;-90
2020/12/04 08:50:17;;;;;;;20.53;18.37;;;4.40;99.90;;;;;;5132179;27;20697;-90
2020/12/04 08:52:45;;;;;;;20.80;18.70;;;4.30;99.90;;;;;;5134359;27;21164;-91
2020/12/04 08:55:14;;;;;;;19.50;17.37;;;4.30;99.90;;;;;;5128571;27;20634;-91
2020/12/04 08:57:41;;;;;;;19.67;17.00;;;4.20;99.90;;;;;;5134467;27;20625;-90
2020/12/04 09:00:10;;;;;;;19.70;17.70;;;4.40;99.90;;;;;;5130532;27;20642;-89
2020/12/04 09:02:38;;;;;;;19.97;17.67;;;4.40;99.90;;;;;;5132595;27;20673;-89
2020/12/04 09:05:08;;;;;;;19.60;17.60;;;4.50;99.90;;;;;;5130839;27;20714;-88
2020/12/04 09:07:34;;;;;;;18.43;16.67;;;4.50;99.90;;;;;;5128068;27;20627;-90
2020/12/04 09:10:01;;;;;;;22.30;18.13;;;4.60;99.90;;;;;;5110337;27;20676;-91
2020/12/04 09:12:28;;;;;;;19.73;16.60;;;4.70;99.90;;;;;;5118103;27;20709;-91
2020/12/04 09:14:54;;;;;;;19.20;17.20;;;4.80;99.90;;;;;;5141624;27;20657;-89
2020/12/04 09:17:23;;;;;;;23.60;17.97;;;4.80;99.90;;;;;;5154501;27;20614;-90
2020/12/04 09:19:50;;;;;;;19.20;16.80;;;5.10;99.90;;;;;;5132637;27;20795;-89
2020/12/04 09:22:17;;;;;;;20.40;17.17;;;5.20;99.90;;;;;;5128837;27;21168;-89
2020/12/04 09:24:44;;;;;;;17.83;15.63;;;5.20;99.90;;;;;;5134414;27;20669;-90
2020/12/04 09:27:12;;;;;;;20.17;14.50;;;5.00;99.90;;;;;;5132081;27;21008;-90
2020/12/04 09:29:39;;;;;;;15.13;13.63;;;5.10;99.90;;;;;;5133337;27;20619;-90
2020/12/04 09:32:11;;;;;;;16.23;14.43;;;5.20;99.90;;;;;;5134527;27;20641;-90
2020/12/04 09:34:38;;;;;;;17.13;15.23;;;4.90;99.90;;;;;;5133682;27;20655;-90
2020/12/04 09:37:21;;;;;;;16.77;15.17;;;4.90;99.90;;;;;;5132738;27;20615;-90
2020/12/04 09:39:50;;;;;;;18.27;15.33;;;4.90;99.90;;;;;;5124325;27;20634;-90
2020/12/04 09:42:17;;;;;;;15.30;13.80;;;5.00;99.90;;;;;;5128705;27;20643;-91
2020/12/04 09:44:45;;;;;;;18.90;15.03;;;5.00;99.90;;;;;;5103178;27;20642;-91
2020/12/04 09:47:12;;;;;;;16.17;14.47;;;5.10;99.90;;;;;;5132976;27;20583;-90
2020/12/04 09:49:40;;;;;;;19.20;16.80;;;5.20;99.90;;;;;;5138636;27;20610;-88
2020/12/04 09:52:08;;;;;;;20.17;16.33;;;5.20;99.90;;;;;;5141078;27;20595;-89
2020/12/04 09:54:37;;;;;;;18.30;15.40;;;5.30;99.90;;;;;;5154037;27;20641;-88
2020/12/04 09:57:05;;;;;;;16.60;15.00;;;5.20;99.90;;;;;;5149617;27;20611;-89
2020/12/04 09:59:32;;;;;;;16.23;14.73;;;5.30;99.90;;;;;;5143129;27;20677;-90
2020/12/04 10:01:59;;;;;;;20.63;16.90;;;5.20;99.90;;;;;;5147162;27;20579;-89
2020/12/04 10:04:26;;;;;;;17.20;15.47;;;5.20;99.90;;;;;;5144491;27;20675;-90
2020/12/04 10:06:53;;;;;;;19.27;16.30;;;5.30;99.90;;;;;;5149399;27;20638;-89
2020/12/04 10:09:20;;;;;;;19.43;17.33;;;5.40;99.90;;;;;;5145678;27;20678;-89
2020/12/04 10:11:49;;;;;;;17.50;15.60;;;5.40;99.90;;;;;;5139760;27;20712;-89
2020/12/04 10:14:16;;;;;;;18.33;16.47;;;5.40;99.90;;;;;;5133924;27;20658;-89
2020/12/04 10:16:43;;;;;;;16.73;14.97;;;5.40;99.90;;;;;;5131689;27;20610;-90
2020/12/04 10:19:11;;;;;;;22.50;17.87;;;5.40;99.90;;;;;;5128597;27;20611;-89
2020/12/04 10:21:39;;;;;;;18.40;15.83;;;5.60;99.90;;;;;;5128986;27;20607;-91
2020/12/04 10:24:08;;;;;;;17.67;15.90;;;5.50;99.90;;;;;;5103710;27;20712;-87
2020/12/04 10:26:38;;;;;;;19.67;16.93;;;5.50;99.90;;;;;;5127891;27;20643;-86
2020/12/04 10:29:05;;;;;;;19.03;17.00;;;5.50;99.90;;;;;;5122653;27;20628;-87
2020/12/04 10:31:32;;;;;;;21.00;16.87;;;5.40;99.90;;;;;;5123706;27;20619;-87
2020/12/04 10:33:59;;;;;;;19.63;15.53;;;5.40;99.90;;;;;;5103933;27;21201;-87
2020/12/04 10:36:26;;;;;;;18.67;15.33;;;5.50;99.90;;;;;;5105218;27;20648;-86
2020/12/04 10:38:52;;;;;;;17.47;15.00;;;5.50;99.90;;;;;;5128009;27;20618;-86
2020/12/04 10:41:19;;;;;;;17.90;15.43;;;5.50;99.90;;;;;;5125783;27;21177;-86
2020/12/04 10:43:45;;;;;;;22.23;15.30;;;5.50;99.90;;;;;;5124238;27;21481;-86
2020/12/04 10:46:12;;;;;;;23.07;16.30;;;5.50;99.90;;;;;;5126515;27;20654;-86
2020/12/04 10:48:39;;;;;;;16.97;15.37;;;5.50;99.90;;;;;;5097447;27;20965;-87
2020/12/04 10:51:07;;;;;;;15.80;13.40;;;5.40;99.90;;;;;;5121391;27;20615;-87
2020/12/04 10:53:36;;;;;;;18.40;15.40;;;5.40;99.90;;;;;;5124016;27;21019;-87
2020/12/04 10:56:02;;;;;;;17.47;14.53;;;5.60;99.90;;;;;;5124075;27;20651;-86
2020/12/04 10:58:29;;;;;;;18.20;15.03;;;5.60;99.90;;;;;;5122996;27;20706;-86
2020/12/04 11:00:55;;;;;;;16.43;13.73;;;5.70;99.90;;;;;;5123334;27;20590;-86
2020/12/04 11:03:31;;;;;;;16.10;14.37;;;5.80;99.90;;;;;;5123041;27;21252;-85
2020/12/04 11:05:57;;;;;;;17.40;14.97;;;5.70;99.90;;;;;;5132084;27;20748;-86
2020/12/04 11:08:23;;;;;;;16.03;14.43;;;5.70;99.90;;;;;;5123072;27;20698;-86
2020/12/04 11:10:49;;;;;;;18.80;14.60;;;5.80;99.90;;;;;;5123335;27;20532;-87
2020/12/04 11:13:16;;;;;;;16.87;14.23;;;5.90;99.90;;;;;;5119818;27;20620;-87
2020/12/04 11:15:43;;;;;;;18.30;15.80;;;5.90;99.90;;;;;;5125488;27;21484;-87
2020/12/04 11:18:09;;;;;;;17.70;15.80;;;5.80;99.90;;;;;;5121579;27;20635;-87
2020/12/04 11:20:44;;;;;;;19.27;15.03;;;5.70;99.90;;;;;;5122739;27;21019;-87
2020/12/04 11:23:10;;;;;;;18.10;16.20;;;5.70;99.90;;;;;;5132452;27;20749;-87
2020/12/04 11:25:39;;;;;;;16.67;14.53;;;5.70;99.90;;;;;;5126426;27;20662;-86
2020/12/04 11:28:06;;;;;;;17.80;15.33;;;5.70;99.90;;;;;;5125548;27;21185;-86
2020/12/04 11:30:33;;;;;;;17.57;14.77;;;5.80;99.90;;;;;;5127657;27;20598;-86
2020/12/04 11:32:59;;;;;;;17.03;14.50;;;5.90;99.90;;;;;;5129215;27;20630;-86
2020/12/04 11:35:26;;;;;;;17.60;15.70;;;5.80;99.90;;;;;;5127552;27;20685;-86
2020/12/04 11:37:57;;;;;;;20.37;14.00;;;5.90;99.90;;;;;;5129384;27;20621;-87
2020/12/04 11:40:24;;;;;;;16.57;13.60;;;5.90;99.90;;;;;;5132140;27;20618;-86
2020/12/04 11:42:50;;;;;;;19.10;14.23;;;6.10;99.90;;;;;;5132736;27;20659;-86
2020/12/04 11:45:17;;;;;;;21.70;17.13;;;6.00;99.90;;;;;;5129928;27;20646;-89
2020/12/04 11:47:44;;;;;;;18.13;16.20;;;6.10;99.90;;;;;;5127526;27;20603;-86
2020/12/04 11:50:12;;;;;;;15.17;13.67;;;6.10;99.90;;;;;;5130636;27;20622;-85
2020/12/04 11:52:38;;;;;;;14.47;13.07;;;6.00;99.90;;;;;;5134056;27;20662;-86
2020/12/04 11:55:06;;;;;;;14.33;12.00;;;6.00;99.90;;;;;;5132910;27;20640;-86
2020/12/04 11:57:33;;;;;;;11.83;10.63;;;6.00;99.90;;;;;;5134017;27;20626;-86
2020/12/04 11:59:59;;;;;;;12.57;11.43;;;5.90;99.90;;;;;;5118389;27;20631;-85
2020/12/04 12:02:26;;;;;;;14.10;11.33;;;6.00;99.90;;;;;;5128410;27;20630;-87
2020/12/04 12:04:52;;;;;;;13.13;11.50;;;6.10;99.90;;;;;;5127087;27;20654;-86
2020/12/04 12:07:19;;;;;;;12.30;11.10;;;6.10;99.90;;;;;;5129091;27;20621;-86
2020/12/04 12:09:47;;;;;;;13.53;10.83;;;6.10;99.90;;;;;;5126872;27;20960;-86
2020/12/04 12:12:15;;;;;;;12.00;10.90;;;6.00;99.90;;;;;;5127564;27;20631;-86
2020/12/04 12:14:44;;;;;;;12.20;11.00;;;6.20;99.90;;;;;;5128409;27;20658;-86
2020/12/04 12:17:10;;;;;;;12.70;11.50;;;6.20;99.90;;;;;;5136708;27;20616;-87
2020/12/04 12:19:37;;;;;;;11.53;10.00;;;6.10;99.90;;;;;;5142945;27;20616;-87
2020/12/04 12:22:04;;;;;;;12.33;11.13;;;6.00;99.90;;;;;;5129026;27;20630;-86
2020/12/04 12:24:30;;;;;;;13.80;11.23;;;6.10;99.90;;;;;;5127220;27;20670;-85
2020/12/04 12:26:57;;;;;;;12.13;10.50;;;6.20;99.90;;;;;;5135050;27;20633;-86
2020/12/04 12:29:24;;;;;;;13.50;12.10;;;6.10;99.90;;;;;;5130061;27;20610;-88
2020/12/04 12:31:50;;;;;;;12.47;11.27;;;6.10;99.90;;;;;;5130995;27;20625;-86
2020/12/04 12:34:17;;;;;;;10.93;9.83;;;6.20;99.90;;;;;;5132348;27;20644;-86
2020/12/04 12:36:43;;;;;;;13.33;10.50;;;6.40;99.90;;;;;;5129276;27;20609;-86
2020/12/04 12:39:09;;;;;;;13.23;10.67;;;6.20;99.90;;;;;;5132766;27;20625;-87